sensor_id;sensor_type;location;lat;lon;timestamp;pressure;altitude;pressure_sealevel;temperature;humidity
50123;BME280;36021;48.670;6.184;2023-05-01T00:00:43;98941.59;;;14.60;100.00
50123;BME280;36021;48.670;6.184;2023-05-01T00:03:09;98926.28;;;14.63;100.00
50123;BME280;36021;48.670;6.184;2023-05-01T00:05:34;98933.63;;;14.67;100.00
50123;BME280;36021;48.670;6.184;2023-05-01T00:08:00;98929.72;;;14.68;100.00
50123;BME280;36021;48.670;6.184;2023-05-01T00:10:26;98925.31;;;14.58;100.00
50123;BME280;36021;48.670;6.184;2023-05-01T00:12:52;98919.25;;;14.56;100.00
50123;BME280;36021;48.670;6.184;2023-05-01T00:15:18;98915.16;;;14.54;100.00
50123;BME280;36021;48.670;6.184;2023-05-01T00:17:43;98916.94;;;14.50;100.00
50123;BME280;36021;48.670;6.184;2023-05-01T00:20:09;98905.19;;;14.53;100.00
50123;BME280;36021;48.670;6.184;2023-05-01T00:22:34;98914.34;;;14.53;100.00
50123;BME280;36021;48.670;6.184;2023-05-01T00:25:00;98904.56;;;14.47;100.00
50123;BME280;36021;48.670;6.184;2023-05-01T00:27:26;98905.53;;;14.43;100.00
50123;BME280;36021;48.670;6.184;2023-05-01T00:29:53;98900.13;;;14.46;100.00
50123;BME280;36021;48.670;6.184;2023-05-01T00:32:19;98892.31;;;14.48;100.00
50123;BME280;36021;48.670;6.184;2023-05-01T00:34:46;98894.94;;;14.53;100.00
50123;BME280;36021;48.670;6.184;2023-05-01T00:37:13;98891.97;;;14.41;100.00
50123;BME280;36021;48.670;6.184;2023-05-01T00:39:39;98893.38;;;14.30;100.00
50123;BME280;36021;48.670;6.184;2023-05-01T00:42:05;98891.63;;;14.34;100.00
50123;BME280;36021;48.670;6.184;2023-05-01T00:44:33;98891.78;;;14.29;100.00
50123;BME280;36021;48.670;6.184;2023-05-01T00:46:58;98889.00;;;14.29;100.00
50123;BME280;36021;48.670;6.184;2023-05-01T00:49:25;98879.81;;;14.20;100.00
50123;BME280;36021;48.670;6.184;2023-05-01T00:51:51;98887.84;;;14.30;100.00
50123;BME280;36021;48.670;6.184;2023-05-01T00:54:19;98881.97;;;14.23;100.00
50123;BME280;36021;48.670;6.184;2023-05-01T00:56:46;98885.34;;;14.20;100.00
50123;BME280;36021;48.670;6.184;2023-05-01T00:59:14;98879.34;;;14.18;100.00
50123;BME280;36021;48.670;6.184;2023-05-01T01:01:40;98878.22;;;14.19;100.00
50123;BME280;36021;48.670;6.184;2023-05-01T01:04:06;98875.09;;;14.21;100.00
50123;BME280;36021;48.670;6.184;2023-05-01T01:06:33;98869.53;;;14.12;100.00
50123;BME280;36021;48.670;6.184;2023-05-01T01:14:32;98870.03;;;14.14;100.00
50123;BME280;36021;48.670;6.184;2023-05-01T01:17:05;98864.31;;;14.10;100.00
50123;BME280;36021;48.670;6.184;2023-05-01T01:22:20;98858.75;;;14.02;100.00
50123;BME280;36021;48.670;6.184;2023-05-01T01:35:31;98860.41;;;13.64;100.00
50123;BME280;36021;48.670;6.184;2023-05-01T01:37:51;98862.88;;;13.43;100.00
50123;BME280;36021;48.670;6.184;2023-05-01T01:40:21;98863.34;;;13.36;100.00
50123;BME280;36021;48.670;6.184;2023-05-01T01:42:50;98863.22;;;13.19;100.00
50123;BME280;36021;48.670;6.184;2023-05-01T01:45:20;98866.25;;;13.09;100.00
50123;BME280;36021;48.670;6.184;2023-05-01T01:47:48;98862.59;;;13.00;100.00
50123;BME280;36021;48.670;6.184;2023-05-01T01:50:14;98859.56;;;12.88;100.00
50123;BME280;36021;48.670;6.184;2023-05-01T01:52:40;98863.16;;;12.88;100.00
50123;BME280;36021;48.670;6.184;2023-05-01T01:55:08;98861.38;;;12.70;100.00
50123;BME280;36021;48.670;6.184;2023-05-01T01:57:35;98863.94;;;12.67;100.00
50123;BME280;36021;48.670;6.184;2023-05-01T02:00:05;98857.00;;;12.69;100.00
50123;BME280;36021;48.670;6.184;2023-05-01T02:02:38;98856.63;;;12.48;100.00
50123;BME280;36021;48.670;6.184;2023-05-01T02:05:08;98855.13;;;12.42;100.00
50123;BME280;36021;48.670;6.184;2023-05-01T02:07:36;98851.53;;;12.42;100.00
50123;BME280;36021;48.670;6.184;2023-05-01T02:10:05;98852.75;;;12.49;100.00
50123;BME280;36021;48.670;6.184;2023-05-01T02:12:32;98852.31;;;12.56;100.00
50123;BME280;36021;48.670;6.184;2023-05-01T02:14:58;98848.09;;;12.59;100.00
50123;BME280;36021;48.670;6.184;2023-05-01T02:17:24;98848.09;;;12.59;100.00
50123;BME280;36021;48.670;6.184;2023-05-01T02:19:51;98849.75;;;12.60;100.00
50123;BME280;36021;48.670;6.184;2023-05-01T02:22:20;98845.34;;;12.59;100.00
50123;BME280;36021;48.670;6.184;2023-05-01T02:24:48;98843.69;;;12.58;100.00
50123;BME280;36021;48.670;6.184;2023-05-01T02:27:22;98840.88;;;12.49;100.00
50123;BME280;36021;48.670;6.184;2023-05-01T02:29:50;98837.59;;;12.47;100.00
50123;BME280;36021;48.670;6.184;2023-05-01T02:32:17;98842.06;;;12.57;100.00
50123;BME280;36021;48.670;6.184;2023-05-01T02:34:44;98844.81;;;12.57;100.00
50123;BME280;36021;48.670;6.184;2023-05-01T02:37:10;98838.56;;;12.65;100.00
50123;BME280;36021;48.670;6.184;2023-05-01T02:39:36;98837.75;;;12.64;100.00
50123;BME280;36021;48.670;6.184;2023-05-01T02:42:02;98834.03;;;12.69;100.00
50123;BME280;36021;48.670;6.184;2023-05-01T02:44:31;98826.88;;;12.68;100.00
50123;BME280;36021;48.670;6.184;2023-05-01T02:46:59;98832.63;;;12.58;100.00
50123;BME280;36021;48.670;6.184;2023-05-01T02:49:25;98825.72;;;12.46;100.00
50123;BME280;36021;48.670;6.184;2023-05-01T02:51:51;98824.34;;;12.58;100.00
50123;BME280;36021;48.670;6.184;2023-05-01T02:54:17;98827.13;;;12.58;100.00
50123;BME280;36021;48.670;6.184;2023-05-01T02:56:43;98819.78;;;12.53;100.00
50123;BME280;36021;48.670;6.184;2023-05-01T02:59:10;98822.69;;;12.57;100.00
50123;BME280;36021;48.670;6.184;2023-05-01T03:01:36;98815.81;;;12.68;100.00
50123;BME280;36021;48.670;6.184;2023-05-01T03:04:02;98828.28;;;12.79;100.00
50123;BME280;36021;48.670;6.184;2023-05-01T03:06:28;98812.22;;;12.89;100.00
50123;BME280;36021;48.670;6.184;2023-05-01T03:08:56;98808.06;;;13.00;100.00
50123;BME280;36021;48.670;6.184;2023-05-01T03:11:21;98812.56;;;13.10;100.00
50123;BME280;36021;48.670;6.184;2023-05-01T03:13:48;98812.56;;;13.10;100.00
50123;BME280;36021;48.670;6.184;2023-05-01T03:16:14;98814.31;;;13.28;100.00
50123;BME280;36021;48.670;6.184;2023-05-01T03:18:40;98807.31;;;13.31;100.00
50123;BME280;36021;48.670;6.184;2023-05-01T03:21:05;98801.97;;;13.34;100.00
50123;BME280;36021;48.670;6.184;2023-05-01T03:23:31;98809.09;;;13.35;100.00
50123;BME280;36021;48.670;6.184;2023-05-01T03:25:56;98810.53;;;13.24;100.00
50123;BME280;36021;48.670;6.184;2023-05-01T03:28:26;98803.50;;;13.18;100.00
50123;BME280;36021;48.670;6.184;2023-05-01T03:30:51;98801.84;;;13.17;100.00
50123;BME280;36021;48.670;6.184;2023-05-01T03:33:19;98801.97;;;13.12;100.00
50123;BME280;36021;48.670;6.184;2023-05-01T03:35:44;98806.44;;;12.99;100.00
50123;BME280;36021;48.670;6.184;2023-05-01T03:38:10;98805.00;;;13.02;100.00
50123;BME280;36021;48.670;6.184;2023-05-01T03:40:54;98808.91;;;13.01;100.00
50123;BME280;36021;48.670;6.184;2023-05-01T03:43:39;98803.25;;;12.84;100.00
50123;BME280;36021;48.670;6.184;2023-05-01T03:46:13;98803.06;;;12.80;100.00
50123;BME280;36021;48.670;6.184;2023-05-01T03:48:40;98794.44;;;12.82;100.00
50123;BME280;36021;48.670;6.184;2023-05-01T03:51:06;98796.34;;;12.73;100.00
50123;BME280;36021;48.670;6.184;2023-05-01T03:53:33;98805.88;;;12.67;100.00
50123;BME280;36021;48.670;6.184;2023-05-01T03:56:05;98805.00;;;12.58;100.00
50123;BME280;36021;48.670;6.184;2023-05-01T03:58:32;98803.00;;;12.49;100.00
50123;BME280;36021;48.670;6.184;2023-05-01T04:00:58;98802.38;;;12.52;100.00
50123;BME280;36021;48.670;6.184;2023-05-01T04:03:25;98804.22;;;12.43;100.00
50123;BME280;36021;48.670;6.184;2023-05-01T04:05:52;98806.28;;;12.38;100.00
50123;BME280;36021;48.670;6.184;2023-05-01T04:08:17;98808.81;;;12.12;100.00
50123;BME280;36021;48.670;6.184;2023-05-01T04:10:46;98809.22;;;12.19;100.00
50123;BME280;36021;48.670;6.184;2023-05-01T04:13:12;98809.09;;;12.24;100.00
50123;BME280;36021;48.670;6.184;2023-05-01T04:15:37;98810.13;;;12.15;100.00
50123;BME280;36021;48.670;6.184;2023-05-01T04:18:03;98806.56;;;12.14;100.00
50123;BME280;36021;48.670;6.184;2023-05-01T04:20:29;98808.94;;;12.07;100.00
50123;BME280;36021;48.670;6.184;2023-05-01T04:22:54;98810.00;;;11.97;100.00
50123;BME280;36021;48.670;6.184;2023-05-01T04:25:20;98810.78;;;11.98;100.00
50123;BME280;36021;48.670;6.184;2023-05-01T04:27:48;98816.91;;;12.09;100.00
50123;BME280;36021;48.670;6.184;2023-05-01T04:30:16;98817.31;;;12.02;100.00
50123;BME280;36021;48.670;6.184;2023-05-01T04:32:42;98821.09;;;12.20;100.00
50123;BME280;36021;48.670;6.184;2023-05-01T04:35:09;98819.03;;;12.25;100.00
50123;BME280;36021;48.670;6.184;2023-05-01T04:37:38;98815.53;;;12.33;100.00
50123;BME280;36021;48.670;6.184;2023-05-01T04:40:03;98825.03;;;12.27;100.00
50123;BME280;36021;48.670;6.184;2023-05-01T04:42:30;98824.69;;;12.20;100.00
50123;BME280;36021;48.670;6.184;2023-05-01T04:44:57;98826.19;;;12.26;100.00
50123;BME280;36021;48.670;6.184;2023-05-01T04:47:26;98824.78;;;12.15;100.00
50123;BME280;36021;48.670;6.184;2023-05-01T04:49:53;98824.97;;;12.19;100.00
50123;BME280;36021;48.670;6.184;2023-05-01T04:52:18;98825.00;;;12.05;100.00
50123;BME280;36021;48.670;6.184;2023-05-01T04:54:52;98825.53;;;12.07;100.00
50123;BME280;36021;48.670;6.184;2023-05-01T04:57:21;98831.13;;;12.02;100.00
50123;BME280;36021;48.670;6.184;2023-05-01T04:59:48;98830.94;;;11.98;100.00
50123;BME280;36021;48.670;6.184;2023-05-01T05:02:14;98837.38;;;12.08;100.00
50123;BME280;36021;48.670;6.184;2023-05-01T05:04:40;98831.66;;;12.04;100.00
50123;BME280;36021;48.670;6.184;2023-05-01T05:07:05;98828.69;;;12.00;100.00
50123;BME280;36021;48.670;6.184;2023-05-01T05:09:54;98833.28;;;12.05;100.00
50123;BME280;36021;48.670;6.184;2023-05-01T05:12:22;98832.66;;;12.08;100.00
50123;BME280;36021;48.670;6.184;2023-05-01T05:14:47;98838.31;;;12.03;100.00
50123;BME280;36021;48.670;6.184;2023-05-01T05:17:15;98841.56;;;11.91;100.00
50123;BME280;36021;48.670;6.184;2023-05-01T05:19:40;98829.31;;;11.97;100.00
50123;BME280;36021;48.670;6.184;2023-05-01T05:22:06;98840.53;;;12.01;100.00
50123;BME280;36021;48.670;6.184;2023-05-01T05:24:41;98832.16;;;12.06;100.00
50123;BME280;36021;48.670;6.184;2023-05-01T05:27:08;98839.34;;;12.07;100.00
50123;BME280;36021;48.670;6.184;2023-05-01T05:29:34;98842.66;;;12.18;100.00
50123;BME280;36021;48.670;6.184;2023-05-01T05:32:02;98845.03;;;12.11;100.00
50123;BME280;36021;48.670;6.184;2023-05-01T05:34:29;98851.97;;;12.35;100.00
50123;BME280;36021;48.670;6.184;2023-05-01T05:36:54;98851.69;;;12.59;100.00
50123;BME280;36021;48.670;6.184;2023-05-01T05:39:23;98852.25;;;12.70;100.00
50123;BME280;36021;48.670;6.184;2023-05-01T05:41:49;98845.25;;;12.86;100.00
50123;BME280;36021;48.670;6.184;2023-05-01T05:44:18;98845.84;;;12.83;100.00
50123;BME280;36021;48.670;6.184;2023-05-01T05:46:45;98842.97;;;12.88;100.00
50123;BME280;36021;48.670;6.184;2023-05-01T05:49:15;98844.00;;;12.92;100.00
50123;BME280;36021;48.670;6.184;2023-05-01T05:51:40;98837.25;;;12.84;100.00
50123;BME280;36021;48.670;6.184;2023-05-01T05:54:10;98843.59;;;12.85;100.00
50123;BME280;36021;48.670;6.184;2023-05-01T05:56:35;98848.75;;;12.78;100.00
50123;BME280;36021;48.670;6.184;2023-05-01T05:59:01;98852.19;;;12.83;100.00
50123;BME280;36021;48.670;6.184;2023-05-01T06:01:29;98852.44;;;12.73;100.00
50123;BME280;36021;48.670;6.184;2023-05-01T06:03:54;98852.63;;;12.77;100.00
50123;BME280;36021;48.670;6.184;2023-05-01T06:06:23;98852.16;;;12.75;100.00
50123;BME280;36021;48.670;6.184;2023-05-01T06:08:50;98853.06;;;12.70;100.00
50123;BME280;36021;48.670;6.184;2023-05-01T06:11:16;98848.75;;;12.78;100.00
50123;BME280;36021;48.670;6.184;2023-05-01T06:13:42;98852.09;;;12.66;100.00
50123;BME280;36021;48.670;6.184;2023-05-01T06:16:07;98852.00;;;12.80;100.00
50123;BME280;36021;48.670;6.184;2023-05-01T06:18:33;98849.13;;;12.85;100.00
50123;BME280;36021;48.670;6.184;2023-05-01T06:20:59;98851.13;;;12.93;100.00
50123;BME280;36021;48.670;6.184;2023-05-01T06:23:24;98840.16;;;13.01;100.00
50123;BME280;36021;48.670;6.184;2023-05-01T06:26:19;98843.31;;;13.09;100.00
50123;BME280;36021;48.670;6.184;2023-05-01T06:28:45;98840.59;;;13.17;100.00
50123;BME280;36021;48.670;6.184;2023-05-01T06:31:11;98840.19;;;13.32;100.00
50123;BME280;36021;48.670;6.184;2023-05-01T06:33:43;98842.91;;;13.24;100.00
50123;BME280;36021;48.670;6.184;2023-05-01T06:36:20;98844.22;;;13.26;100.00
50123;BME280;36021;48.670;6.184;2023-05-01T06:38:46;98839.34;;;13.54;100.00
50123;BME280;36021;48.670;6.184;2023-05-01T06:41:14;98846.41;;;13.69;100.00
50123;BME280;36021;48.670;6.184;2023-05-01T06:43:40;98831.63;;;13.82;100.00
50123;BME280;36021;48.670;6.184;2023-05-01T06:46:08;98843.44;;;13.65;100.00
50123;BME280;36021;48.670;6.184;2023-05-01T06:48:34;98840.09;;;13.77;100.00
50123;BME280;36021;48.670;6.184;2023-05-01T06:50:59;98846.66;;;13.89;100.00
50123;BME280;36021;48.670;6.184;2023-05-01T06:53:25;98836.56;;;14.02;100.00
50123;BME280;36021;48.670;6.184;2023-05-01T06:55:52;98843.44;;;14.04;100.00
50123;BME280;36021;48.670;6.184;2023-05-01T06:58:17;98845.25;;;14.09;100.00
50123;BME280;36021;48.670;6.184;2023-05-01T07:00:44;98849.78;;;14.05;100.00
50123;BME280;36021;48.670;6.184;2023-05-01T07:03:10;98843.94;;;14.15;100.00
50123;BME280;36021;48.670;6.184;2023-05-01T07:05:35;98838.41;;;14.15;100.00
50123;BME280;36021;48.670;6.184;2023-05-01T07:08:01;98844.63;;;14.29;100.00
50123;BME280;36021;48.670;6.184;2023-05-01T07:10:28;98844.19;;;14.36;100.00
50123;BME280;36021;48.670;6.184;2023-05-01T07:12:55;98846.31;;;14.47;100.00
50123;BME280;36021;48.670;6.184;2023-05-01T07:15:20;98845.69;;;14.59;100.00
50123;BME280;36021;48.670;6.184;2023-05-01T07:17:46;98840.78;;;14.65;100.00
50123;BME280;36021;48.670;6.184;2023-05-01T07:20:12;98847.97;;;14.66;100.00
50123;BME280;36021;48.670;6.184;2023-05-01T07:22:38;98846.16;;;14.61;100.00
50123;BME280;36021;48.670;6.184;2023-05-01T07:25:05;98852.22;;;14.72;100.00
50123;BME280;36021;48.670;6.184;2023-05-01T07:27:31;98844.69;;;14.81;100.00
50123;BME280;36021;48.670;6.184;2023-05-01T07:29:57;98844.38;;;14.74;100.00
50123;BME280;36021;48.670;6.184;2023-05-01T07:32:23;98844.22;;;14.79;100.00
50123;BME280;36021;48.670;6.184;2023-05-01T07:34:50;98847.97;;;14.66;100.00
50123;BME280;36021;48.670;6.184;2023-05-01T07:37:15;98849.59;;;14.67;100.00
50123;BME280;36021;48.670;6.184;2023-05-01T07:39:40;98847.47;;;14.89;100.00
50123;BME280;36021;48.670;6.184;2023-05-01T07:42:06;98849.25;;;15.11;100.00
50123;BME280;36021;48.670;6.184;2023-05-01T07:44:34;98849.41;;;14.89;100.00
50123;BME280;36021;48.670;6.184;2023-05-01T07:47:03;98841.94;;;14.81;100.00
50123;BME280;36021;48.670;6.184;2023-05-01T07:49:29;98846.50;;;14.94;100.00
50123;BME280;36021;48.670;6.184;2023-05-01T07:51:59;98841.44;;;14.79;100.00
50123;BME280;36021;48.670;6.184;2023-05-01T07:54:27;98840.78;;;14.82;100.00
50123;BME280;36021;48.670;6.184;2023-05-01T07:56:53;98845.97;;;15.18;100.00
50123;BME280;36021;48.670;6.184;2023-05-01T07:59:21;98843.00;;;15.31;100.00
50123;BME280;36021;48.670;6.184;2023-05-01T08:01:46;98847.88;;;15.43;100.00
50123;BME280;36021;48.670;6.184;2023-05-01T08:04:12;98850.63;;;15.60;100.00
50123;BME280;36021;48.670;6.184;2023-05-01T08:06:38;98842.25;;;15.69;100.00
50123;BME280;36021;48.670;6.184;2023-05-01T08:09:06;98852.63;;;15.89;100.00
50123;BME280;36021;48.670;6.184;2023-05-01T08:11:32;98850.63;;;15.98;100.00
50123;BME280;36021;48.670;6.184;2023-05-01T08:13:58;98846.63;;;16.16;100.00
50123;BME280;36021;48.670;6.184;2023-05-01T08:16:23;98845.66;;;16.41;100.00
50123;BME280;36021;48.670;6.184;2023-05-01T08:18:49;98847.53;;;16.49;100.00
50123;BME280;36021;48.670;6.184;2023-05-01T08:21:14;98850.81;;;16.51;100.00
50123;BME280;36021;48.670;6.184;2023-05-01T08:23:41;98848.34;;;16.58;100.00
50123;BME280;36021;48.670;6.184;2023-05-01T08:26:07;98848.53;;;16.74;100.00
50123;BME280;36021;48.670;6.184;2023-05-01T08:28:34;98849.34;;;16.95;100.00
50123;BME280;36021;48.670;6.184;2023-05-01T08:30:59;98844.28;;;17.09;100.00
50123;BME280;36021;48.670;6.184;2023-05-01T08:33:27;98850.22;;;17.08;100.00
50123;BME280;36021;48.670;6.184;2023-05-01T08:35:53;98850.19;;;16.75;100.00
50123;BME280;36021;48.670;6.184;2023-05-01T08:38:18;98840.84;;;16.92;100.00
50123;BME280;36021;48.670;6.184;2023-05-01T08:40:46;98851.31;;;16.74;100.00
50123;BME280;36021;48.670;6.184;2023-05-01T08:43:15;98852.16;;;16.75;100.00
50123;BME280;36021;48.670;6.184;2023-05-01T08:45:42;98845.69;;;16.83;100.00
50123;BME280;36021;48.670;6.184;2023-05-01T08:48:08;98840.69;;;17.09;100.00
50123;BME280;36021;48.670;6.184;2023-05-01T08:50:35;98840.22;;;17.40;100.00
50123;BME280;36021;48.670;6.184;2023-05-01T08:53:03;98845.94;;;17.43;100.00
50123;BME280;36021;48.670;6.184;2023-05-01T08:55:29;98838.69;;;17.30;100.00
50123;BME280;36021;48.670;6.184;2023-05-01T08:57:55;98838.94;;;17.70;100.00
50123;BME280;36021;48.670;6.184;2023-05-01T09:00:22;98843.25;;;18.04;100.00
50123;BME280;36021;48.670;6.184;2023-05-01T09:02:51;98847.22;;;18.15;100.00
50123;BME280;36021;48.670;6.184;2023-05-01T09:05:18;98846.03;;;17.92;100.00
50123;BME280;36021;48.670;6.184;2023-05-01T09:07:45;98839.06;;;17.98;100.00
50123;BME280;36021;48.670;6.184;2023-05-01T09:10:11;98837.63;;;17.67;100.00
50123;BME280;36021;48.670;6.184;2023-05-01T09:12:39;98839.72;;;17.70;100.00
50123;BME280;36021;48.670;6.184;2023-05-01T09:15:06;98835.47;;;17.97;100.00
50123;BME280;36021;48.670;6.184;2023-05-01T09:17:32;98835.22;;;18.27;100.00
50123;BME280;36021;48.670;6.184;2023-05-01T09:19:58;98835.44;;;18.34;100.00
50123;BME280;36021;48.670;6.184;2023-05-01T09:22:28;98836.47;;;18.65;100.00
50123;BME280;36021;48.670;6.184;2023-05-01T09:24:54;98839.25;;;18.65;100.00
50123;BME280;36021;48.670;6.184;2023-05-01T09:27:22;98848.41;;;18.90;100.00
50123;BME280;36021;48.670;6.184;2023-05-01T09:29:48;98845.72;;;18.82;100.00
50123;BME280;36021;48.670;6.184;2023-05-01T09:32:15;98844.06;;;18.93;100.00
50123;BME280;36021;48.670;6.184;2023-05-01T09:34:41;98847.88;;;19.28;100.00
50123;BME280;36021;48.670;6.184;2023-05-01T09:37:12;98846.06;;;19.20;100.00
50123;BME280;36021;48.670;6.184;2023-05-01T09:39:38;98843.91;;;18.73;100.00
50123;BME280;36021;48.670;6.184;2023-05-01T09:42:05;98850.03;;;18.91;100.00
50123;BME280;36021;48.670;6.184;2023-05-01T09:44:34;98850.13;;;18.55;100.00
50123;BME280;36021;48.670;6.184;2023-05-01T09:47:07;98849.50;;;18.73;100.00
50123;BME280;36021;48.670;6.184;2023-05-01T09:49:45;98844.72;;;19.02;100.00
50123;BME280;36021;48.670;6.184;2023-05-01T09:52:12;98848.72;;;19.01;100.00
50123;BME280;36021;48.670;6.184;2023-05-01T09:54:39;98840.75;;;19.31;100.00
50123;BME280;36021;48.670;6.184;2023-05-01T09:57:06;98842.69;;;19.14;100.00
50123;BME280;36021;48.670;6.184;2023-05-01T09:59:40;98839.81;;;19.11;100.00
50123;BME280;36021;48.670;6.184;2023-05-01T10:06:38;98831.13;;;19.00;100.00
50123;BME280;36021;48.670;6.184;2023-05-01T10:09:04;98839.97;;;19.30;100.00
50123;BME280;36021;48.670;6.184;2023-05-01T10:11:50;98835.34;;;18.94;100.00
50123;BME280;36021;48.670;6.184;2023-05-01T10:14:19;98847.38;;;19.38;100.00
50123;BME280;36021;48.670;6.184;2023-05-01T10:16:48;98844.31;;;20.02;100.00
50123;BME280;36021;48.670;6.184;2023-05-01T10:19:15;98839.78;;;20.13;100.00
50123;BME280;36021;48.670;6.184;2023-05-01T10:21:41;98848.44;;;20.24;100.00
50123;BME280;36021;48.670;6.184;2023-05-01T10:24:07;98845.38;;;20.13;100.00
50123;BME280;36021;48.670;6.184;2023-05-01T10:26:36;98845.13;;;20.03;100.00
50123;BME280;36021;48.670;6.184;2023-05-01T10:29:01;98841.88;;;20.01;100.00
50123;BME280;36021;48.670;6.184;2023-05-01T10:31:28;98842.59;;;19.82;100.00
50123;BME280;36021;48.670;6.184;2023-05-01T10:33:57;98852.16;;;19.97;100.00
50123;BME280;36021;48.670;6.184;2023-05-01T10:38:48;98849.59;;;19.05;100.00
50123;BME280;36021;48.670;6.184;2023-05-01T10:41:14;98848.28;;;18.87;100.00
50123;BME280;36021;48.670;6.184;2023-05-01T10:43:41;98852.53;;;18.44;100.00
50123;BME280;36021;48.670;6.184;2023-05-01T10:51:08;98854.63;;;18.59;100.00
50123;BME280;36021;48.670;6.184;2023-05-01T10:53:35;98854.84;;;18.66;100.00
50123;BME280;36021;48.670;6.184;2023-05-01T10:56:01;98857.31;;;18.68;100.00
50123;BME280;36021;48.670;6.184;2023-05-01T11:03:47;98857.97;;;19.17;100.00
50123;BME280;36021;48.670;6.184;2023-05-01T11:06:16;98853.38;;;19.52;100.00
50123;BME280;36021;48.670;6.184;2023-05-01T11:08:41;98852.69;;;19.55;100.00
50123;BME280;36021;48.670;6.184;2023-05-01T11:14:01;98840.06;;;19.61;100.00
50123;BME280;36021;48.670;6.184;2023-05-01T11:21:45;98835.81;;;19.83;100.00
50123;BME280;36021;48.670;6.184;2023-05-01T11:24:13;98841.59;;;20.06;100.00
50123;BME280;36021;48.670;6.184;2023-05-01T11:26:39;98838.09;;;20.09;100.00
50123;BME280;36021;48.670;6.184;2023-05-01T11:29:07;98833.03;;;20.30;100.00
50123;BME280;36021;48.670;6.184;2023-05-01T11:31:34;98825.34;;;20.27;100.00
50123;BME280;36021;48.670;6.184;2023-05-01T11:34:02;98830.88;;;20.08;100.00
50123;BME280;36021;48.670;6.184;2023-05-01T11:36:28;98829.28;;;20.26;100.00
50123;BME280;36021;48.670;6.184;2023-05-01T11:38:57;98835.63;;;19.60;100.00
50123;BME280;36021;48.670;6.184;2023-05-01T11:41:26;98829.59;;;19.58;100.00
50123;BME280;36021;48.670;6.184;2023-05-01T11:43:54;98827.31;;;19.48;100.00
50123;BME280;36021;48.670;6.184;2023-05-01T11:46:27;98824.00;;;19.58;100.00
50123;BME280;36021;48.670;6.184;2023-05-01T11:48:58;98830.00;;;19.45;100.00
50123;BME280;36021;48.670;6.184;2023-05-01T11:51:25;98825.09;;;19.69;100.00
50123;BME280;36021;48.670;6.184;2023-05-01T11:54:02;98824.09;;;20.09;100.00
50123;BME280;36021;48.670;6.184;2023-05-01T11:56:32;98825.88;;;20.33;100.00
50123;BME280;36021;48.670;6.184;2023-05-01T11:59:07;98826.78;;;20.21;100.00
50123;BME280;36021;48.670;6.184;2023-05-01T12:01:33;98830.75;;;20.20;100.00
50123;BME280;36021;48.670;6.184;2023-05-01T12:04:00;98828.72;;;19.86;100.00
50123;BME280;36021;48.670;6.184;2023-05-01T12:09:05;98837.09;;;19.27;100.00
50123;BME280;36021;48.670;6.184;2023-05-01T12:11:32;98825.72;;;19.63;100.00
50123;BME280;36021;48.670;6.184;2023-05-01T12:13:58;98829.50;;;19.86;100.00
50123;BME280;36021;48.670;6.184;2023-05-01T12:16:23;98825.63;;;19.91;100.00
50123;BME280;36021;48.670;6.184;2023-05-01T12:18:49;98827.06;;;20.00;100.00
50123;BME280;36021;48.670;6.184;2023-05-01T12:21:15;98832.91;;;20.77;100.00
50123;BME280;36021;48.670;6.184;2023-05-01T12:23:47;98830.31;;;21.22;100.00
50123;BME280;36021;48.670;6.184;2023-05-01T12:26:16;98832.13;;;21.15;97.38
50123;BME280;36021;48.670;6.184;2023-05-01T12:28:53;98831.09;;;21.04;100.00
50123;BME280;36021;48.670;6.184;2023-05-01T12:31:20;98828.56;;;20.99;100.00
50123;BME280;36021;48.670;6.184;2023-05-01T12:33:54;98828.41;;;20.72;100.00
50123;BME280;36021;48.670;6.184;2023-05-01T12:36:21;98835.44;;;20.47;100.00
50123;BME280;36021;48.670;6.184;2023-05-01T12:38:58;98836.09;;;19.94;100.00
50123;BME280;36021;48.670;6.184;2023-05-01T12:41:38;98832.94;;;20.11;100.00
50123;BME280;36021;48.670;6.184;2023-05-01T12:44:15;98836.84;;;21.11;100.00
50123;BME280;36021;48.670;6.184;2023-05-01T12:46:42;98837.72;;;20.76;100.00
50123;BME280;36021;48.670;6.184;2023-05-01T12:49:08;98833.66;;;20.08;100.00
50123;BME280;36021;48.670;6.184;2023-05-01T12:51:34;98840.91;;;20.09;100.00
50123;BME280;36021;48.670;6.184;2023-05-01T12:54:00;98847.09;;;19.87;100.00
50123;BME280;36021;48.670;6.184;2023-05-01T12:56:26;98853.69;;;18.43;100.00
50123;BME280;36021;48.670;6.184;2023-05-01T12:58:52;98861.84;;;18.12;100.00
50123;BME280;36021;48.670;6.184;2023-05-01T13:01:23;98867.47;;;17.67;100.00
50123;BME280;36021;48.670;6.184;2023-05-01T13:03:53;98870.03;;;17.27;100.00
50123;BME280;36021;48.670;6.184;2023-05-01T13:06:21;98871.84;;;17.23;100.00
50123;BME280;36021;48.670;6.184;2023-05-01T13:09:05;98872.50;;;17.08;100.00
50123;BME280;36021;48.670;6.184;2023-05-01T13:11:31;98878.53;;;16.39;100.00
50123;BME280;36021;48.670;6.184;2023-05-01T13:14:05;98864.38;;;16.61;100.00
50123;BME280;36021;48.670;6.184;2023-05-01T13:16:32;98869.59;;;16.84;100.00
50123;BME280;36021;48.670;6.184;2023-05-01T13:19:00;98868.56;;;16.88;100.00
50123;BME280;36021;48.670;6.184;2023-05-01T13:21:26;98865.97;;;17.04;100.00
50123;BME280;36021;48.670;6.184;2023-05-01T13:23:56;98868.66;;;17.33;100.00
50123;BME280;36021;48.670;6.184;2023-05-01T13:26:25;98860.56;;;17.52;100.00
50123;BME280;36021;48.670;6.184;2023-05-01T13:28:54;98861.13;;;18.39;100.00
50123;BME280;36021;48.670;6.184;2023-05-01T13:34:11;98868.31;;;19.16;100.00
50123;BME280;36021;48.670;6.184;2023-05-01T13:36:41;98858.50;;;19.50;100.00
50123;BME280;36021;48.670;6.184;2023-05-01T13:39:09;98863.59;;;19.60;100.00
50123;BME280;36021;48.670;6.184;2023-05-01T13:41:41;98858.47;;;19.62;100.00